sensor_id;sensor_type;location;lat;lon;timestamp;temperature;humidity
43089;DHT22;28709;52.030;5.652;2023-07-20T00:01:45;16.90;99.90
43089;DHT22;28709;52.030;5.652;2023-07-20T00:04:12;16.80;99.90
43089;DHT22;28709;52.030;5.652;2023-07-20T00:06:38;16.80;99.90
43089;DHT22;28709;52.030;5.652;2023-07-20T00:09:06;16.80;99.90
43089;DHT22;28709;52.030;5.652;2023-07-20T00:11:36;16.80;99.90
43089;DHT22;28709;52.030;5.652;2023-07-20T00:14:04;16.70;99.90
43089;DHT22;28709;52.030;5.652;2023-07-20T00:16:29;16.80;99.90
43089;DHT22;28709;52.030;5.652;2023-07-20T00:18:55;16.80;99.90
43089;DHT22;28709;52.030;5.652;2023-07-20T00:21:20;16.80;99.90
43089;DHT22;28709;52.030;5.652;2023-07-20T00:23:46;16.70;99.90
43089;DHT22;28709;52.030;5.652;2023-07-20T00:26:12;16.70;99.90
43089;DHT22;28709;52.030;5.652;2023-07-20T00:28:37;16.70;99.90
43089;DHT22;28709;52.030;5.652;2023-07-20T00:31:03;16.60;99.90
43089;DHT22;28709;52.030;5.652;2023-07-20T00:33:29;16.60;99.90
43089;DHT22;28709;52.030;5.652;2023-07-20T00:35:55;16.50;99.90
43089;DHT22;28709;52.030;5.652;2023-07-20T00:38:20;16.50;99.90
43089;DHT22;28709;52.030;5.652;2023-07-20T00:40:46;16.40;99.90
43089;DHT22;28709;52.030;5.652;2023-07-20T00:43:12;16.40;99.90
43089;DHT22;28709;52.030;5.652;2023-07-20T00:45:38;16.30;99.90
43089;DHT22;28709;52.030;5.652;2023-07-20T00:48:05;16.30;99.90
43089;DHT22;28709;52.030;5.652;2023-07-20T00:50:32;16.30;99.90
43089;DHT22;28709;52.030;5.652;2023-07-20T00:52:59;16.30;99.90
43089;DHT22;28709;52.030;5.652;2023-07-20T00:55:25;16.40;99.90
43089;DHT22;28709;52.030;5.652;2023-07-20T00:57:52;16.40;99.90
43089;DHT22;28709;52.030;5.652;2023-07-20T01:00:18;16.30;99.90
43089;DHT22;28709;52.030;5.652;2023-07-20T01:02:45;16.30;99.90
43089;DHT22;28709;52.030;5.652;2023-07-20T01:05:11;16.30;99.90
43089;DHT22;28709;52.030;5.652;2023-07-20T01:07:58;16.30;99.90
43089;DHT22;28709;52.030;5.652;2023-07-20T01:10:31;16.20;99.90
43089;DHT22;28709;52.030;5.652;2023-07-20T01:13:00;16.20;99.90
43089;DHT22;28709;52.030;5.652;2023-07-20T01:15:27;16.20;99.90
43089;DHT22;28709;52.030;5.652;2023-07-20T01:17:52;16.10;99.90
43089;DHT22;28709;52.030;5.652;2023-07-20T01:20:20;16.10;99.90
43089;DHT22;28709;52.030;5.652;2023-07-20T01:33:15;15.90;99.90
43089;DHT22;28709;52.030;5.652;2023-07-20T01:35:42;15.90;99.90
43089;DHT22;28709;52.030;5.652;2023-07-20T01:38:10;15.90;99.90
43089;DHT22;28709;52.030;5.652;2023-07-20T01:40:37;15.90;99.90
43089;DHT22;28709;52.030;5.652;2023-07-20T01:43:03;15.90;99.90
43089;DHT22;28709;52.030;5.652;2023-07-20T01:45:28;15.90;99.90
43089;DHT22;28709;52.030;5.652;2023-07-20T01:47:54;15.90;99.90
43089;DHT22;28709;52.030;5.652;2023-07-20T01:50:20;15.90;99.90
43089;DHT22;28709;52.030;5.652;2023-07-20T01:52:45;15.90;99.90
43089;DHT22;28709;52.030;5.652;2023-07-20T01:55:11;15.90;99.90
43089;DHT22;28709;52.030;5.652;2023-07-20T01:57:37;15.90;99.90
43089;DHT22;28709;52.030;5.652;2023-07-20T02:00:03;15.90;99.90
43089;DHT22;28709;52.030;5.652;2023-07-20T02:02:29;15.90;99.90
43089;DHT22;28709;52.030;5.652;2023-07-20T02:04:55;15.90;99.90
43089;DHT22;28709;52.030;5.652;2023-07-20T02:07:20;15.90;99.90
43089;DHT22;28709;52.030;5.652;2023-07-20T02:09:46;15.80;99.90
43089;DHT22;28709;52.030;5.652;2023-07-20T02:12:11;15.70;99.90
43089;DHT22;28709;52.030;5.652;2023-07-20T02:14:37;15.70;99.90
43089;DHT22;28709;52.030;5.652;2023-07-20T02:17:03;15.70;99.90
43089;DHT22;28709;52.030;5.652;2023-07-20T02:19:30;15.60;99.90
43089;DHT22;28709;52.030;5.652;2023-07-20T02:21:56;15.60;99.90
43089;DHT22;28709;52.030;5.652;2023-07-20T02:24:21;15.60;99.90
43089;DHT22;28709;52.030;5.652;2023-07-20T02:26:47;15.60;99.90
43089;DHT22;28709;52.030;5.652;2023-07-20T02:29:12;15.60;99.90
43089;DHT22;28709;52.030;5.652;2023-07-20T02:31:38;15.60;99.90
43089;DHT22;28709;52.030;5.652;2023-07-20T02:34:05;15.60;99.90
43089;DHT22;28709;52.030;5.652;2023-07-20T02:36:31;15.50;99.90
43089;DHT22;28709;52.030;5.652;2023-07-20T02:38:58;15.50;99.90
43089;DHT22;28709;52.030;5.652;2023-07-20T02:41:24;15.50;99.90
43089;DHT22;28709;52.030;5.652;2023-07-20T02:43:50;15.50;99.90
43089;DHT22;28709;52.030;5.652;2023-07-20T02:46:15;15.50;99.90
43089;DHT22;28709;52.030;5.652;2023-07-20T02:48:41;15.50;99.90
43089;DHT22;28709;52.030;5.652;2023-07-20T02:51:07;15.50;99.90
43089;DHT22;28709;52.030;5.652;2023-07-20T02:53:33;15.50;99.90
43089;DHT22;28709;52.030;5.652;2023-07-20T02:55:59;15.50;99.90
43089;DHT22;28709;52.030;5.652;2023-07-20T02:58:24;15.40;99.90
43089;DHT22;28709;52.030;5.652;2023-07-20T03:00:50;15.40;99.90
43089;DHT22;28709;52.030;5.652;2023-07-20T03:03:15;15.40;99.90
43089;DHT22;28709;52.030;5.652;2023-07-20T03:05:42;15.40;99.90
43089;DHT22;28709;52.030;5.652;2023-07-20T03:08:09;15.30;99.90
43089;DHT22;28709;52.030;5.652;2023-07-20T03:10:41;15.30;99.90
43089;DHT22;28709;52.030;5.652;2023-07-20T03:13:07;15.30;99.90
43089;DHT22;28709;52.030;5.652;2023-07-20T03:15:34;15.30;99.90
43089;DHT22;28709;52.030;5.652;2023-07-20T03:17:59;15.30;99.90
43089;DHT22;28709;52.030;5.652;2023-07-20T03:20:25;15.30;99.90
43089;DHT22;28709;52.030;5.652;2023-07-20T03:22:51;15.20;99.90
43089;DHT22;28709;52.030;5.652;2023-07-20T03:25:16;15.30;99.90
43089;DHT22;28709;52.030;5.652;2023-07-20T03:27:43;15.30;99.90
43089;DHT22;28709;52.030;5.652;2023-07-20T03:30:08;15.20;99.90
43089;DHT22;28709;52.030;5.652;2023-07-20T03:32:35;15.20;99.90
43089;DHT22;28709;52.030;5.652;2023-07-20T03:35:01;15.20;99.90
43089;DHT22;28709;52.030;5.652;2023-07-20T03:37:26;15.20;99.90
43089;DHT22;28709;52.030;5.652;2023-07-20T03:39:52;15.20;99.90
43089;DHT22;28709;52.030;5.652;2023-07-20T03:42:18;15.20;99.90
43089;DHT22;28709;52.030;5.652;2023-07-20T03:44:43;15.10;99.90
43089;DHT22;28709;52.030;5.652;2023-07-20T03:47:09;15.10;99.90
43089;DHT22;28709;52.030;5.652;2023-07-20T03:49:35;15.10;99.90
43089;DHT22;28709;52.030;5.652;2023-07-20T03:52:01;15.10;99.90
43089;DHT22;28709;52.030;5.652;2023-07-20T03:54:28;15.10;99.90
43089;DHT22;28709;52.030;5.652;2023-07-20T03:56:54;15.10;99.90
43089;DHT22;28709;52.030;5.652;2023-07-20T03:59:20;15.00;99.90
43089;DHT22;28709;52.030;5.652;2023-07-20T04:01:45;15.00;99.90
43089;DHT22;28709;52.030;5.652;2023-07-20T04:04:11;15.10;99.90
43089;DHT22;28709;52.030;5.652;2023-07-20T04:06:37;15.10;99.90
43089;DHT22;28709;52.030;5.652;2023-07-20T04:09:03;15.10;99.90
43089;DHT22;28709;52.030;5.652;2023-07-20T04:11:30;15.10;99.90
43089;DHT22;28709;52.030;5.652;2023-07-20T04:13:56;15.10;99.90
43089;DHT22;28709;52.030;5.652;2023-07-20T04:16:22;15.20;99.90
43089;DHT22;28709;52.030;5.652;2023-07-20T04:18:47;15.20;99.90
43089;DHT22;28709;52.030;5.652;2023-07-20T04:21:13;15.30;99.90
43089;DHT22;28709;52.030;5.652;2023-07-20T04:23:38;15.30;99.90
43089;DHT22;28709;52.030;5.652;2023-07-20T04:26:04;15.40;99.90
43089;DHT22;28709;52.030;5.652;2023-07-20T04:28:32;15.40;99.90
43089;DHT22;28709;52.030;5.652;2023-07-20T04:31:10;15.40;99.90
43089;DHT22;28709;52.030;5.652;2023-07-20T04:33:36;15.50;99.90
43089;DHT22;28709;52.030;5.652;2023-07-20T04:36:02;15.50;99.90
43089;DHT22;28709;52.030;5.652;2023-07-20T04:38:28;15.60;99.90
43089;DHT22;28709;52.030;5.652;2023-07-20T04:40:54;15.60;99.90
43089;DHT22;28709;52.030;5.652;2023-07-20T04:43:19;15.60;99.90
43089;DHT22;28709;52.030;5.652;2023-07-20T04:45:45;15.70;99.90
43089;DHT22;28709;52.030;5.652;2023-07-20T04:48:15;15.70;99.90
43089;DHT22;28709;52.030;5.652;2023-07-20T04:50:41;15.80;99.90
43089;DHT22;28709;52.030;5.652;2023-07-20T04:53:08;15.80;99.90
43089;DHT22;28709;52.030;5.652;2023-07-20T04:55:35;15.80;99.90
43089;DHT22;28709;52.030;5.652;2023-07-20T04:58:02;15.90;99.90
43089;DHT22;28709;52.030;5.652;2023-07-20T05:00:29;15.90;99.90
43089;DHT22;28709;52.030;5.652;2023-07-20T05:02:55;16.00;99.90
43089;DHT22;28709;52.030;5.652;2023-07-20T05:05:21;15.90;99.90
43089;DHT22;28709;52.030;5.652;2023-07-20T05:07:47;15.90;99.90
43089;DHT22;28709;52.030;5.652;2023-07-20T05:10:13;15.90;99.90
43089;DHT22;28709;52.030;5.652;2023-07-20T05:12:39;15.90;99.90
43089;DHT22;28709;52.030;5.652;2023-07-20T05:15:05;16.00;99.90
43089;DHT22;28709;52.030;5.652;2023-07-20T05:17:30;16.00;99.90
43089;DHT22;28709;52.030;5.652;2023-07-20T05:19:56;16.00;99.90
43089;DHT22;28709;52.030;5.652;2023-07-20T05:22:22;16.00;99.90
43089;DHT22;28709;52.030;5.652;2023-07-20T05:24:47;16.00;99.90
43089;DHT22;28709;52.030;5.652;2023-07-20T05:27:13;16.00;99.90
43089;DHT22;28709;52.030;5.652;2023-07-20T05:29:44;16.00;99.90
43089;DHT22;28709;52.030;5.652;2023-07-20T05:32:10;16.00;99.90
43089;DHT22;28709;52.030;5.652;2023-07-20T05:34:35;16.00;99.90
43089;DHT22;28709;52.030;5.652;2023-07-20T05:37:01;16.00;99.90
43089;DHT22;28709;52.030;5.652;2023-07-20T05:39:27;16.00;99.90
43089;DHT22;28709;52.030;5.652;2023-07-20T05:41:52;16.10;99.90
43089;DHT22;28709;52.030;5.652;2023-07-20T05:44:18;16.20;99.90
43089;DHT22;28709;52.030;5.652;2023-07-20T05:46:44;16.30;99.90
43089;DHT22;28709;52.030;5.652;2023-07-20T05:49:10;16.40;99.90
43089;DHT22;28709;52.030;5.652;2023-07-20T05:51:35;16.40;99.90
43089;DHT22;28709;52.030;5.652;2023-07-20T05:54:01;16.50;99.90
43089;DHT22;28709;52.030;5.652;2023-07-20T05:56:27;16.60;99.90
43089;DHT22;28709;52.030;5.652;2023-07-20T05:58:53;16.70;99.90
43089;DHT22;28709;52.030;5.652;2023-07-20T06:01:18;16.80;99.90
43089;DHT22;28709;52.030;5.652;2023-07-20T06:03:44;16.80;99.90
43089;DHT22;28709;52.030;5.652;2023-07-20T06:06:10;16.90;99.90
43089;DHT22;28709;52.030;5.652;2023-07-20T06:08:37;17.00;99.90
43089;DHT22;28709;52.030;5.652;2023-07-20T06:11:03;17.10;99.90
43089;DHT22;28709;52.030;5.652;2023-07-20T06:13:29;17.10;99.90
43089;DHT22;28709;52.030;5.652;2023-07-20T06:15:55;17.20;99.90
43089;DHT22;28709;52.030;5.652;2023-07-20T06:18:23;17.30;99.90
43089;DHT22;28709;52.030;5.652;2023-07-20T06:20:51;17.30;99.90
43089;DHT22;28709;52.030;5.652;2023-07-20T06:23:20;17.40;99.90
43089;DHT22;28709;52.030;5.652;2023-07-20T06:25:45;17.50;99.90
43089;DHT22;28709;52.030;5.652;2023-07-20T06:28:11;17.50;99.90
43089;DHT22;28709;52.030;5.652;2023-07-20T06:30:37;17.70;99.90
43089;DHT22;28709;52.030;5.652;2023-07-20T06:33:03;17.70;99.90
43089;DHT22;28709;52.030;5.652;2023-07-20T06:35:28;17.70;99.90
43089;DHT22;28709;52.030;5.652;2023-07-20T06:37:54;17.80;99.90
43089;DHT22;28709;52.030;5.652;2023-07-20T06:40:20;17.90;99.90
43089;DHT22;28709;52.030;5.652;2023-07-20T06:42:46;18.00;99.90
43089;DHT22;28709;52.030;5.652;2023-07-20T06:45:11;18.10;99.90
43089;DHT22;28709;52.030;5.652;2023-07-20T06:47:40;18.30;99.90
43089;DHT22;28709;52.030;5.652;2023-07-20T06:50:07;18.40;99.90
43089;DHT22;28709;52.030;5.652;2023-07-20T06:52:33;18.70;99.90
43089;DHT22;28709;52.030;5.652;2023-07-20T06:54:59;18.80;99.90
43089;DHT22;28709;52.030;5.652;2023-07-20T06:57:25;19.00;99.90
43089;DHT22;28709;52.030;5.652;2023-07-20T06:59:51;19.10;99.90
43089;DHT22;28709;52.030;5.652;2023-07-20T07:02:16;19.20;99.90
43089;DHT22;28709;52.030;5.652;2023-07-20T07:04:42;19.20;99.90
43089;DHT22;28709;52.030;5.652;2023-07-20T07:07:08;19.10;99.90
43089;DHT22;28709;52.030;5.652;2023-07-20T07:09:35;19.10;99.90
43089;DHT22;28709;52.030;5.652;2023-07-20T07:12:00;19.00;99.90
43089;DHT22;28709;52.030;5.652;2023-07-20T07:14:26;18.90;99.90
43089;DHT22;28709;52.030;5.652;2023-07-20T07:16:52;18.90;99.90
43089;DHT22;28709;52.030;5.652;2023-07-20T07:19:18;19.00;99.90
43089;DHT22;28709;52.030;5.652;2023-07-20T07:21:43;19.20;99.90
43089;DHT22;28709;52.030;5.652;2023-07-20T07:24:09;19.40;99.90
43089;DHT22;28709;52.030;5.652;2023-07-20T07:26:36;19.50;99.90
43089;DHT22;28709;52.030;5.652;2023-07-20T07:29:02;19.60;99.90
43089;DHT22;28709;52.030;5.652;2023-07-20T07:31:29;19.50;99.90
43089;DHT22;28709;52.030;5.652;2023-07-20T07:33:56;19.40;99.90
43089;DHT22;28709;52.030;5.652;2023-07-20T07:36:22;19.20;99.90
43089;DHT22;28709;52.030;5.652;2023-07-20T07:38:49;19.10;99.90
43089;DHT22;28709;52.030;5.652;2023-07-20T07:41:15;19.00;99.90
43089;DHT22;28709;52.030;5.652;2023-07-20T07:43:41;18.90;99.90
43089;DHT22;28709;52.030;5.652;2023-07-20T07:46:07;19.00;99.90
43089;DHT22;28709;52.030;5.652;2023-07-20T07:48:32;19.20;99.90
43089;DHT22;28709;52.030;5.652;2023-07-20T07:50:58;19.40;99.90
43089;DHT22;28709;52.030;5.652;2023-07-20T07:53:24;19.50;99.90
43089;DHT22;28709;52.030;5.652;2023-07-20T07:55:51;19.70;99.90
43089;DHT22;28709;52.030;5.652;2023-07-20T07:58:18;19.90;99.90
43089;DHT22;28709;52.030;5.652;2023-07-20T08:00:43;20.10;99.90
43089;DHT22;28709;52.030;5.652;2023-07-20T08:03:10;20.40;99.90
43089;DHT22;28709;52.030;5.652;2023-07-20T08:05:36;20.40;99.90
43089;DHT22;28709;52.030;5.652;2023-07-20T08:08:02;20.50;99.90
43089;DHT22;28709;52.030;5.652;2023-07-20T08:10:29;20.50;99.90
43089;DHT22;28709;52.030;5.652;2023-07-20T08:12:55;20.60;99.90
43089;DHT22;28709;52.030;5.652;2023-07-20T08:15:21;20.70;99.90
43089;DHT22;28709;52.030;5.652;2023-07-20T08:17:46;20.80;99.90
43089;DHT22;28709;52.030;5.652;2023-07-20T08:20:14;21.10;99.90
43089;DHT22;28709;52.030;5.652;2023-07-20T08:22:41;21.40;99.90
43089;DHT22;28709;52.030;5.652;2023-07-20T08:25:08;21.70;99.90
43089;DHT22;28709;52.030;5.652;2023-07-20T08:27:34;21.90;99.90
43089;DHT22;28709;52.030;5.652;2023-07-20T08:29:59;22.00;99.90
43089;DHT22;28709;52.030;5.652;2023-07-20T08:32:26;22.00;99.90
43089;DHT22;28709;52.030;5.652;2023-07-20T08:34:52;22.10;99.90
43089;DHT22;28709;52.030;5.652;2023-07-20T08:37:17;22.10;99.90
43089;DHT22;28709;52.030;5.652;2023-07-20T08:39:43;22.00;99.90
43089;DHT22;28709;52.030;5.652;2023-07-20T08:42:10;21.90;99.80
43089;DHT22;28709;52.030;5.652;2023-07-20T08:44:37;21.80;99.80
43089;DHT22;28709;52.030;5.652;2023-07-20T08:47:04;21.80;99.60
43089;DHT22;28709;52.030;5.652;2023-07-20T08:49:34;21.60;98.60
43089;DHT22;28709;52.030;5.652;2023-07-20T08:52:00;21.40;98.40
43089;DHT22;28709;52.030;5.652;2023-07-20T08:54:30;21.30;98.30
43089;DHT22;28709;52.030;5.652;2023-07-20T08:57:02;21.00;98.50
43089;DHT22;28709;52.030;5.652;2023-07-20T08:59:29;21.00;98.80
43089;DHT22;28709;52.030;5.652;2023-07-20T09:01:56;21.00;98.60
43089;DHT22;28709;52.030;5.652;2023-07-20T09:04:23;21.00;98.80
43089;DHT22;28709;52.030;5.652;2023-07-20T09:06:49;21.00;98.50
43089;DHT22;28709;52.030;5.652;2023-07-20T09:09:16;21.00;98.70
43089;DHT22;28709;52.030;5.652;2023-07-20T09:11:42;20.90;98.40
43089;DHT22;28709;52.030;5.652;2023-07-20T09:14:09;20.90;98.10
43089;DHT22;28709;52.030;5.652;2023-07-20T09:16:48;20.90;98.20
43089;DHT22;28709;52.030;5.652;2023-07-20T09:19:15;20.90;98.00
43089;DHT22;28709;52.030;5.652;2023-07-20T09:21:50;21.00;98.20
43089;DHT22;28709;52.030;5.652;2023-07-20T09:24:19;21.00;98.20
43089;DHT22;28709;52.030;5.652;2023-07-20T09:26:47;21.10;98.40
43089;DHT22;28709;52.030;5.652;2023-07-20T09:29:19;21.30;98.30
43089;DHT22;28709;52.030;5.652;2023-07-20T09:32:05;21.60;98.10
43089;DHT22;28709;52.030;5.652;2023-07-20T09:34:32;21.70;97.90
43089;DHT22;28709;52.030;5.652;2023-07-20T09:36:59;21.70;97.80
43089;DHT22;28709;52.030;5.652;2023-07-20T09:39:26;21.70;97.90
43089;DHT22;28709;52.030;5.652;2023-07-20T09:41:51;21.70;97.80
43089;DHT22;28709;52.030;5.652;2023-07-20T09:44:17;21.70;98.10
43089;DHT22;28709;52.030;5.652;2023-07-20T09:46:50;22.00;97.80
43089;DHT22;28709;52.030;5.652;2023-07-20T09:49:17;22.30;97.50
43089;DHT22;28709;52.030;5.652;2023-07-20T09:51:44;22.60;97.40
43089;DHT22;28709;52.030;5.652;2023-07-20T09:54:10;22.70;97.00
43089;DHT22;28709;52.030;5.652;2023-07-20T09:56:38;22.70;97.10
43089;DHT22;28709;52.030;5.652;2023-07-20T09:59:05;22.50;97.00
43089;DHT22;28709;52.030;5.652;2023-07-20T10:01:33;22.30;97.00
43089;DHT22;28709;52.030;5.652;2023-07-20T10:04:03;22.30;96.40
43089;DHT22;28709;52.030;5.652;2023-07-20T10:06:32;22.10;96.50
43089;DHT22;28709;52.030;5.652;2023-07-20T10:09:01;22.00;96.50
43089;DHT22;28709;52.030;5.652;2023-07-20T10:11:31;21.80;96.70
43089;DHT22;28709;52.030;5.652;2023-07-20T10:13:59;21.70;96.50
43089;DHT22;28709;52.030;5.652;2023-07-20T10:16:39;21.60;96.60
43089;DHT22;28709;52.030;5.652;2023-07-20T10:19:27;21.50;96.50
43089;DHT22;28709;52.030;5.652;2023-07-20T10:22:05;21.70;96.80
43089;DHT22;28709;52.030;5.652;2023-07-20T10:24:33;22.00;96.40
43089;DHT22;28709;52.030;5.652;2023-07-20T10:27:00;22.50;96.00
43089;DHT22;28709;52.030;5.652;2023-07-20T10:29:26;22.90;95.60
43089;DHT22;28709;52.030;5.652;2023-07-20T10:31:54;23.10;93.70
43089;DHT22;28709;52.030;5.652;2023-07-20T10:34:22;23.00;93.60
43089;DHT22;28709;52.030;5.652;2023-07-20T10:36:49;22.70;93.90
43089;DHT22;28709;52.030;5.652;2023-07-20T10:39:27;22.50;94.10
43089;DHT22;28709;52.030;5.652;2023-07-20T10:42:09;22.30;94.20
43089;DHT22;28709;52.030;5.652;2023-07-20T10:44:39;22.00;94.50
43089;DHT22;28709;52.030;5.652;2023-07-20T10:47:12;21.80;94.60
43089;DHT22;28709;52.030;5.652;2023-07-20T10:49:57;21.70;94.70
43089;DHT22;28709;52.030;5.652;2023-07-20T10:52:23;21.50;94.90
43089;DHT22;28709;52.030;5.652;2023-07-20T10:54:49;21.50;94.90
43089;DHT22;28709;52.030;5.652;2023-07-20T10:57:31;21.50;95.00
43089;DHT22;28709;52.030;5.652;2023-07-20T11:00:13;21.70;95.30
43089;DHT22;28709;52.030;5.652;2023-07-20T11:02:49;22.10;95.30
43089;DHT22;28709;52.030;5.652;2023-07-20T11:05:33;22.60;94.70
43089;DHT22;28709;52.030;5.652;2023-07-20T11:08:37;22.90;94.40
43089;DHT22;28709;52.030;5.652;2023-07-20T11:11:23;23.20;94.40
43089;DHT22;28709;52.030;5.652;2023-07-20T11:14:01;23.60;94.30
43089;DHT22;28709;52.030;5.652;2023-07-20T11:16:45;24.00;93.70
43089;DHT22;28709;52.030;5.652;2023-07-20T11:19:19;24.30;92.10
43089;DHT22;28709;52.030;5.652;2023-07-20T11:21:46;24.30;91.80
43089;DHT22;28709;52.030;5.652;2023-07-20T11:24:12;24.20;91.60
43089;DHT22;28709;52.030;5.652;2023-07-20T11:26:50;24.10;91.60
43089;DHT22;28709;52.030;5.652;2023-07-20T11:29:22;23.80;91.30
43089;DHT22;28709;52.030;5.652;2023-07-20T11:31:49;23.50;91.40
43089;DHT22;28709;52.030;5.652;2023-07-20T11:34:17;23.40;91.70
43089;DHT22;28709;52.030;5.652;2023-07-20T11:36:50;23.30;91.70
43089;DHT22;28709;52.030;5.652;2023-07-20T11:39:17;23.20;91.40
43089;DHT22;28709;52.030;5.652;2023-07-20T11:41:49;23.10;91.50
43089;DHT22;28709;52.030;5.652;2023-07-20T11:44:18;23.00;91.70
43089;DHT22;28709;52.030;5.652;2023-07-20T11:46:44;22.90;91.70
43089;DHT22;28709;52.030;5.652;2023-07-20T11:49:11;23.00;91.80
43089;DHT22;28709;52.030;5.652;2023-07-20T11:51:38;23.30;92.00
43089;DHT22;28709;52.030;5.652;2023-07-20T11:54:05;23.60;91.90
43089;DHT22;28709;52.030;5.652;2023-07-20T11:56:31;23.90;91.20
43089;DHT22;28709;52.030;5.652;2023-07-20T11:58:58;24.20;91.30
43089;DHT22;28709;52.030;5.652;2023-07-20T12:01:26;24.50;91.00
43089;DHT22;28709;52.030;5.652;2023-07-20T12:03:57;24.60;90.50
43089;DHT22;28709;52.030;5.652;2023-07-20T12:06:24;24.60;90.40
43089;DHT22;28709;52.030;5.652;2023-07-20T12:08:53;24.30;90.30
43089;DHT22;28709;52.030;5.652;2023-07-20T12:11:36;24.00;90.20
43089;DHT22;28709;52.030;5.652;2023-07-20T12:14:03;23.60;90.40
43089;DHT22;28709;52.030;5.652;2023-07-20T12:16:30;23.40;90.50
43089;DHT22;28709;52.030;5.652;2023-07-20T12:19:00;23.20;90.30
43089;DHT22;28709;52.030;5.652;2023-07-20T12:21:27;23.00;90.40
43089;DHT22;28709;52.030;5.652;2023-07-20T12:23:52;22.90;90.10
43089;DHT22;28709;52.030;5.652;2023-07-20T12:26:20;22.80;89.80
43089;DHT22;28709;52.030;5.652;2023-07-20T12:28:47;22.70;90.00
43089;DHT22;28709;52.030;5.652;2023-07-20T12:31:14;22.60;90.00
43089;DHT22;28709;52.030;5.652;2023-07-20T12:33:40;22.70;90.10
43089;DHT22;28709;52.030;5.652;2023-07-20T12:36:05;22.90;89.50
43089;DHT22;28709;52.030;5.652;2023-07-20T12:38:31;23.10;87.90
43089;DHT22;28709;52.030;5.652;2023-07-20T12:40:57;23.20;87.40
43089;DHT22;28709;52.030;5.652;2023-07-20T12:43:24;23.30;87.40
43089;DHT22;28709;52.030;5.652;2023-07-20T12:45:49;23.50;88.30
43089;DHT22;28709;52.030;5.652;2023-07-20T12:48:15;23.80;88.20
43089;DHT22;28709;52.030;5.652;2023-07-20T12:50:41;24.00;87.60
43089;DHT22;28709;52.030;5.652;2023-07-20T12:53:07;24.30;87.10
43089;DHT22;28709;52.030;5.652;2023-07-20T12:55:33;24.30;86.90
43089;DHT22;28709;52.030;5.652;2023-07-20T12:57:59;24.20;87.20
43089;DHT22;28709;52.030;5.652;2023-07-20T13:00:24;24.40;87.40
43089;DHT22;28709;52.030;5.652;2023-07-20T13:02:50;24.70;87.00
43089;DHT22;28709;52.030;5.652;2023-07-20T13:05:16;24.70;86.30
43089;DHT22;28709;52.030;5.652;2023-07-20T13:07:42;24.60;85.70
43089;DHT22;28709;52.030;5.652;2023-07-20T13:10:09;24.40;85.70
43089;DHT22;28709;52.030;5.652;2023-07-20T13:12:36;24.40;85.70
43089;DHT22;28709;52.030;5.652;2023-07-20T13:15:03;24.20;85.60
43089;DHT22;28709;52.030;5.652;2023-07-20T13:17:31;24.00;85.50
43089;DHT22;28709;52.030;5.652;2023-07-20T13:19:57;23.90;85.80
43089;DHT22;28709;52.030;5.652;2023-07-20T13:22:23;23.90;86.20
43089;DHT22;28709;52.030;5.652;2023-07-20T13:24:49;23.90;86.40
43089;DHT22;28709;52.030;5.652;2023-07-20T13:27:16;23.90;85.20
43089;DHT22;28709;52.030;5.652;2023-07-20T13:29:42;23.90;85.20
43089;DHT22;28709;52.030;5.652;2023-07-20T13:32:09;23.90;85.50
43089;DHT22;28709;52.030;5.652;2023-07-20T13:34:34;23.70;84.80
43089;DHT22;28709;52.030;5.652;2023-07-20T13:37:01;23.40;85.20
43089;DHT22;28709;52.030;5.652;2023-07-20T13:39:27;23.30;85.50
43089;DHT22;28709;52.030;5.652;2023-07-20T13:41:53;23.10;85.70
43089;DHT22;28709;52.030;5.652;2023-07-20T13:44:20;23.00;86.00
43089;DHT22;28709;52.030;5.652;2023-07-20T13:46:47;23.00;86.40
43089;DHT22;28709;52.030;5.652;2023-07-20T13:49:12;22.90;86.50
43089;DHT22;28709;52.030;5.652;2023-07-20T13:51:39;22.90;86.80
43089;DHT22;28709;52.030;5.652;2023-07-20T13:54:05;22.90;86.70
43089;DHT22;28709;52.030;5.652;2023-07-20T13:56:31;22.80;86.70
43089;DHT22;28709;52.030;5.652;2023-07-20T13:58:57;22.80;86.50
43089;DHT22;28709;52.030;5.652;2023-07-20T14:01:23;22.80;86.50
43089;DHT22;28709;52.030;5.652;2023-07-20T14:03:50;22.90;86.20
43089;DHT22;28709;52.030;5.652;2023-07-20T14:06:16;23.00;86.00
43089;DHT22;28709;52.030;5.652;2023-07-20T14:08:43;23.10;86.00
43089;DHT22;28709;52.030;5.652;2023-07-20T14:11:12;23.20;85.40
43089;DHT22;28709;52.030;5.652;2023-07-20T14:13:38;23.20;84.80
43089;DHT22;28709;52.030;5.652;2023-07-20T14:16:04;23.20;85.10
43089;DHT22;28709;52.030;5.652;2023-07-20T14:18:29;23.30;85.40
43089;DHT22;28709;52.030;5.652;2023-07-20T14:20:55;23.40;85.10
43089;DHT22;28709;52.030;5.652;2023-07-20T14:23:21;23.50;84.40
43089;DHT22;28709;52.030;5.652;2023-07-20T14:25:47;23.40;85.10
43089;DHT22;28709;52.030;5.652;2023-07-20T14:28:13;23.50;85.60
43089;DHT22;28709;52.030;5.652;2023-07-20T14:30:38;23.70;85.60
43089;DHT22;28709;52.030;5.652;2023-07-20T14:33:04;23.70;85.80
43089;DHT22;28709;52.030;5.652;2023-07-20T14:35:30;23.80;85.90
43089;DHT22;28709;52.030;5.652;2023-07-20T14:37:55;23.70;86.10
43089;DHT22;28709;52.030;5.652;2023-07-20T14:40:21;23.60;86.30
43089;DHT22;28709;52.030;5.652;2023-07-20T14:42:46;23.60;86.30
43089;DHT22;28709;52.030;5.652;2023-07-20T14:45:12;23.50;86.10
43089;DHT22;28709;52.030;5.652;2023-07-20T14:47:38;23.40;86.50
43089;DHT22;28709;52.030;5.652;2023-07-20T14:50:04;23.50;86.60
43089;DHT22;28709;52.030;5.652;2023-07-20T14:52:30;23.40;86.50
43089;DHT22;28709;52.030;5.652;2023-07-20T14:54:55;23.30;86.80
43089;DHT22;28709;52.030;5.652;2023-07-20T14:57:21;23.30;86.80
43089;DHT22;28709;52.030;5.652;2023-07-20T14:59:51;23.20;86.90
43089;DHT22;28709;52.030;5.652;2023-07-20T15:02:18;23.20;86.50
43089;DHT22;28709;52.030;5.652;2023-07-20T15:04:50;23.20;86.50
43089;DHT22;28709;52.030;5.652;2023-07-20T15:07:20;23.10;86.50
43089;DHT22;28709;52.030;5.652;2023-07-20T15:09:47;23.10;85.30
43089;DHT22;28709;52.030;5.652;2023-07-20T15:12:13;23.10;85.60
43089;DHT22;28709;52.030;5.652;2023-07-20T15:14:40;23.20;85.60
43089;DHT22;28709;52.030;5.652;2023-07-20T15:17:07;23.40;84.80
43089;DHT22;28709;52.030;5.652;2023-07-20T15:19:33;23.50;84.60
43089;DHT22;28709;52.030;5.652;2023-07-20T15:22:00;23.60;83.40
43089;DHT22;28709;52.030;5.652;2023-07-20T15:24:25;23.40;83.60
43089;DHT22;28709;52.030;5.652;2023-07-20T15:26:51;23.20;83.80
43089;DHT22;28709;52.030;5.652;2023-07-20T15:29:16;23.10;84.40
43089;DHT22;28709;52.030;5.652;2023-07-20T15:31:42;23.10;84.80
43089;DHT22;28709;52.030;5.652;2023-07-20T15:34:08;23.10;84.90
43089;DHT22;28709;52.030;5.652;2023-07-20T15:36:33;23.10;84.90
43089;DHT22;28709;52.030;5.652;2023-07-20T15:38:59;23.10;84.80
43089;DHT22;28709;52.030;5.652;2023-07-20T15:41:25;23.10;84.80